Terminal Aerodrome Forecast
Issued by NWS

Home | Current Version | Previous Version | Text Only | Print | Product List | Glossary On
Versions: 1 2 3 4 5 6 7 8 9 10 11 12
000
FTUS46 KPDT 111700
TAFPSC
TAF
KPSC 111720Z 1118/1218 VRB04KT P6SM SKC
     FM112100 36006KT P6SM FEW200
     FM120200 VRB04KT P6SM SCT200
     FM120600 VRB04KT P6SM SCT150=

USA.gov is the U.S. government's official web portal to all federal, state and local government web resources and services.